createdAt,value
2017-06-26T00:01:23.654Z,9.03
2017-06-26T00:03:51.969Z,9.03
2017-06-26T00:06:19.443Z,9.20
2017-06-26T00:08:47.049Z,9.70
2017-06-26T00:11:14.657Z,8.87
2017-06-26T00:13:42.181Z,8.07
2017-06-26T00:16:10.466Z,9.80
2017-06-26T00:18:37.964Z,8.50
2017-06-26T00:21:05.454Z,9.83
2017-06-26T00:23:32.939Z,8.90
2017-06-26T00:26:00.446Z,9.10
2017-06-26T00:28:27.937Z,8.40
2017-06-26T00:30:55.463Z,9.13
2017-06-26T00:33:22.946Z,8.93
2017-06-26T00:35:50.441Z,8.53
2017-06-26T00:38:17.945Z,9.70
2017-06-26T00:40:45.432Z,9.60
2017-06-26T00:43:13.692Z,9.40
2017-06-26T00:45:41.280Z,9.73
2017-06-26T00:48:09.533Z,10.00
2017-06-26T00:50:37.049Z,10.27
2017-06-26T00:53:04.553Z,9.83
2017-06-26T00:55:32.130Z,10.90
2017-06-26T00:58:00.421Z,11.07
2017-06-26T01:00:28.698Z,10.27
2017-06-26T01:02:56.994Z,10.50
2017-06-26T01:05:24.508Z,10.47
2017-06-26T01:07:52.021Z,11.10
2017-06-26T01:10:19.519Z,11.27
2017-06-26T01:12:47.100Z,10.63
2017-06-26T01:15:15.364Z,11.80
2017-06-26T01:17:42.862Z,10.93
2017-06-26T01:20:10.354Z,12.17
2017-06-26T01:22:37.847Z,11.47
2017-06-26T01:25:06.729Z,10.80
2017-06-26T01:27:34.224Z,11.90
2017-06-26T01:30:01.717Z,11.60
2017-06-26T01:32:29.238Z,11.07
2017-06-26T01:34:56.717Z,12.40
2017-06-26T01:37:24.247Z,12.47
2017-06-26T01:39:52.519Z,11.50
2017-06-26T01:42:20.006Z,11.80
2017-06-26T01:44:47.522Z,11.70
2017-06-26T01:47:15.010Z,10.53
2017-06-26T01:49:42.559Z,12.47
2017-06-26T01:52:10.158Z,11.43
2017-06-26T01:54:37.659Z,12.80
2017-06-26T01:57:05.192Z,13.70
2017-06-26T01:59:32.799Z,12.20
2017-06-26T02:02:01.087Z,12.23
2017-06-26T02:04:28.567Z,13.53
2017-06-26T02:06:56.101Z,13.03
2017-06-26T02:09:23.591Z,12.77
2017-06-26T02:11:51.079Z,13.33
2017-06-26T02:14:18.576Z,13.27
2017-06-26T02:16:46.070Z,13.47
2017-06-26T02:19:13.557Z,13.43
2017-06-26T02:21:41.074Z,13.63
2017-06-26T02:24:08.588Z,14.90
2017-06-26T02:26:36.062Z,13.40
2017-06-26T02:29:03.563Z,13.33
2017-06-26T02:31:31.090Z,14.03
2017-06-26T02:33:58.577Z,14.83
2017-06-26T02:36:26.095Z,13.57
2017-06-26T02:38:54.353Z,15.00
2017-06-26T02:41:22.608Z,14.40
2017-06-26T02:43:50.090Z,16.17
2017-06-26T02:46:18.355Z,15.40
2017-06-26T02:48:45.897Z,14.77
2017-06-26T02:51:14.039Z,12.93
2017-06-26T02:53:41.522Z,13.47
2017-06-26T02:56:09.053Z,13.20
2017-06-26T02:58:36.551Z,13.77
2017-06-26T03:01:04.822Z,13.57
2017-06-26T03:03:32.334Z,13.67
2017-06-26T03:05:59.825Z,12.13
2017-06-26T03:08:27.323Z,12.30
2017-06-26T03:10:54.807Z,12.43
2017-06-26T03:13:22.306Z,13.57
2017-06-26T03:15:49.822Z,13.80
2017-06-26T03:18:17.383Z,12.37
2017-06-26T03:20:44.913Z,11.80
2017-06-26T03:23:12.418Z,12.70
2017-06-26T03:25:39.898Z,10.80
2017-06-26T03:28:07.378Z,9.90
2017-06-26T03:30:34.915Z,10.30
2017-06-26T03:33:02.451Z,9.17
2017-06-26T03:35:30.003Z,8.10
2017-06-26T03:37:57.493Z,8.90
2017-06-26T03:40:24.996Z,7.73
2017-06-26T03:42:53.268Z,7.60
2017-06-26T03:45:20.966Z,7.73
2017-06-26T03:47:48.456Z,6.70
2017-06-26T03:50:15.974Z,7.80
2017-06-26T03:52:43.460Z,6.40
2017-06-26T03:55:10.958Z,5.57
2017-06-26T03:57:38.481Z,6.10
2017-06-26T04:00:07.152Z,6.43
2017-06-26T04:02:35.463Z,5.43
2017-06-26T04:05:02.957Z,4.63
2017-06-26T04:07:31.213Z,5.27
2017-06-26T04:09:58.719Z,3.93
2017-06-26T04:12:26.236Z,4.27
2017-06-26T04:14:53.778Z,3.70
2017-06-26T04:17:22.059Z,3.50
2017-06-26T04:19:49.574Z,2.90
2017-06-26T04:22:17.073Z,3.10
2017-06-26T04:24:44.555Z,3.07
2017-06-26T04:27:12.066Z,3.40
2017-06-26T04:29:39.572Z,2.93
2017-06-26T04:32:07.822Z,2.60
2017-06-26T04:34:35.325Z,3.03
2017-06-26T04:37:03.861Z,2.10
2017-06-26T04:39:31.343Z,2.20
2017-06-26T04:41:58.853Z,2.20
2017-06-26T04:44:26.359Z,1.83
2017-06-26T04:46:53.850Z,2.80
2017-06-26T04:49:21.334Z,3.23
2017-06-26T04:51:48.864Z,2.90
2017-06-26T04:54:16.346Z,2.60
2017-06-26T04:56:43.818Z,2.87
2017-06-26T04:59:11.338Z,2.27
2017-06-26T05:01:38.813Z,2.90
2017-06-26T05:04:06.307Z,2.27
2017-06-26T05:06:33.787Z,2.40
2017-06-26T05:09:01.307Z,2.40
2017-06-26T05:11:29.836Z,3.20
2017-06-26T05:13:57.366Z,3.10
2017-06-26T05:16:24.855Z,2.40
2017-06-26T05:18:52.377Z,2.40
2017-06-26T05:21:19.885Z,2.73
2017-06-26T05:23:47.369Z,2.43
2017-06-26T05:26:14.861Z,2.20
2017-06-26T05:28:42.380Z,3.10
2017-06-26T05:31:09.870Z,3.37
2017-06-26T05:33:37.367Z,2.97
2017-06-26T05:36:05.650Z,2.43
2017-06-26T05:38:33.894Z,2.30
2017-06-26T05:41:01.399Z,2.43
2017-06-26T05:43:28.891Z,3.37
2017-06-26T05:45:56.391Z,3.10
2017-06-26T05:48:24.695Z,3.30
2017-06-26T05:50:52.178Z,2.90
2017-06-26T05:53:19.665Z,2.60
2017-06-26T05:55:47.163Z,2.40
2017-06-26T05:58:14.680Z,2.30
2017-06-26T06:00:42.214Z,2.30
2017-06-26T06:03:09.705Z,2.67
2017-06-26T06:05:37.233Z,3.17
2017-06-26T06:08:04.748Z,2.10
2017-06-26T06:10:33.025Z,3.10
2017-06-26T06:13:01.304Z,2.63
2017-06-26T06:15:29.652Z,2.87
2017-06-26T06:17:57.132Z,1.90
2017-06-26T06:20:25.383Z,2.00
2017-06-26T06:22:52.911Z,2.47
2017-06-26T06:25:20.393Z,2.00
2017-06-26T06:27:47.897Z,1.37
2017-06-26T06:30:16.173Z,1.90
2017-06-26T06:32:44.432Z,2.07
2017-06-26T06:35:11.957Z,1.47
2017-06-26T06:37:39.466Z,2.13
2017-06-26T06:40:07.727Z,2.00
2017-06-26T06:42:35.223Z,1.67
2017-06-26T06:45:02.726Z,1.50
2017-06-26T06:47:30.229Z,1.40
2017-06-26T06:49:57.727Z,1.57
2017-06-26T06:52:25.477Z,1.73
2017-06-26T06:54:53.022Z,1.73
2017-06-26T06:57:20.541Z,1.53
2017-06-26T06:59:48.066Z,1.97
2017-06-26T07:02:15.579Z,1.50
2017-06-26T07:04:44.168Z,1.53
2017-06-26T07:07:11.705Z,1.63
2017-06-26T07:09:39.218Z,1.90
2017-06-26T07:12:06.747Z,2.03
2017-06-26T07:14:34.274Z,1.73
2017-06-26T07:17:01.798Z,1.43
2017-06-26T07:19:29.320Z,1.80
2017-06-26T07:21:57.600Z,2.60
2017-06-26T07:24:25.834Z,2.27
2017-06-26T07:26:53.368Z,1.93
2017-06-26T07:29:20.860Z,2.57
2017-06-26T07:31:48.450Z,2.20
2017-06-26T07:34:16.027Z,2.40
2017-06-26T07:36:43.658Z,2.80
2017-06-26T07:39:11.943Z,2.10
2017-06-26T07:41:40.198Z,2.43
2017-06-26T07:44:07.716Z,2.10
2017-06-26T07:46:35.238Z,2.67
2017-06-26T07:49:03.541Z,2.27
2017-06-26T07:51:31.033Z,2.43
2017-06-26T07:53:58.553Z,2.00
2017-06-26T07:56:26.067Z,2.00
2017-06-26T07:58:53.660Z,2.13
2017-06-26T08:01:21.940Z,2.40
2017-06-26T08:03:49.452Z,2.07
2017-06-26T08:06:16.953Z,2.33
2017-06-26T08:08:45.253Z,2.30
2017-06-26T08:11:12.764Z,2.43
2017-06-26T08:13:40.378Z,2.10
2017-06-26T08:16:07.931Z,2.93
2017-06-26T08:18:35.420Z,2.00
2017-06-26T08:21:02.935Z,2.43
2017-06-26T08:23:30.459Z,1.97
2017-06-26T08:25:57.951Z,1.90
2017-06-26T08:28:25.440Z,2.60
2017-06-26T08:30:52.962Z,2.10
2017-06-26T08:33:20.487Z,2.40
2017-06-26T08:35:47.995Z,2.10
2017-06-26T08:38:15.531Z,2.53
2017-06-26T08:40:43.805Z,2.73
2017-06-26T08:43:12.078Z,2.70
2017-06-26T08:45:39.586Z,2.17
2017-06-26T08:48:07.102Z,2.00
2017-06-26T08:50:35.346Z,2.70
2017-06-26T08:53:02.887Z,2.07
2017-06-26T08:55:30.368Z,1.73
2017-06-26T08:57:57.876Z,2.03
2017-06-26T09:00:25.400Z,2.00
2017-06-26T09:02:52.904Z,2.30
2017-06-26T09:05:20.393Z,2.13
2017-06-26T09:07:47.926Z,3.30
2017-06-26T09:10:15.409Z,2.20
2017-06-26T09:12:42.908Z,2.77
2017-06-26T09:15:11.188Z,2.43
2017-06-26T09:17:38.685Z,2.47
2017-06-26T09:20:06.218Z,2.50
2017-06-26T09:22:33.727Z,2.37
2017-06-26T09:25:01.254Z,2.97
2017-06-26T09:27:28.779Z,2.30
2017-06-26T09:29:57.055Z,2.43
2017-06-26T09:32:25.351Z,2.50
2017-06-26T09:34:52.863Z,2.23
2017-06-26T09:37:20.489Z,3.07
2017-06-26T09:39:48.000Z,3.20
2017-06-26T09:42:15.510Z,2.60
2017-06-26T09:44:43.572Z,3.20
2017-06-26T09:47:11.059Z,3.63
2017-06-26T09:49:38.598Z,3.50
2017-06-26T09:52:06.088Z,4.60
2017-06-26T09:54:34.161Z,3.77
2017-06-26T09:57:01.685Z,4.70
2017-06-26T09:59:29.254Z,3.50
2017-06-26T10:01:56.774Z,4.10
2017-06-26T10:04:24.272Z,4.33
2017-06-26T10:06:51.772Z,3.97
2017-06-26T10:09:19.293Z,3.93
2017-06-26T10:11:46.851Z,4.50
2017-06-26T10:14:14.365Z,4.17
2017-06-26T10:16:42.692Z,4.33
2017-06-26T10:19:10.213Z,4.67
2017-06-26T10:21:38.471Z,5.13
2017-06-26T10:24:06.772Z,4.90
2017-06-26T10:26:34.329Z,4.17
2017-06-26T10:29:01.839Z,4.93
2017-06-26T10:31:29.355Z,4.33
2017-06-26T10:33:56.883Z,4.00
2017-06-26T10:36:24.420Z,3.50
2017-06-26T10:38:52.004Z,4.00
2017-06-26T10:41:20.394Z,3.47
2017-06-26T10:43:48.667Z,3.20
2017-06-26T10:46:16.930Z,3.67
2017-06-26T10:48:44.478Z,3.93
2017-06-26T10:51:11.999Z,4.10
2017-06-26T10:53:39.503Z,2.90
2017-06-26T10:56:07.216Z,4.03
2017-06-26T10:58:34.891Z,3.50
2017-06-26T11:01:02.401Z,3.70
2017-06-26T11:03:30.730Z,3.70
2017-06-26T11:05:58.298Z,4.03
2017-06-26T11:08:25.824Z,3.30
2017-06-26T11:10:53.397Z,3.60
2017-06-26T11:13:20.945Z,3.80
2017-06-26T11:15:48.493Z,3.83
2017-06-26T11:18:16.010Z,3.30
2017-06-26T11:20:43.494Z,3.20
2017-06-26T11:23:11.772Z,3.43
2017-06-26T11:25:40.124Z,3.67
2017-06-26T11:28:07.633Z,2.90
2017-06-26T11:30:35.152Z,2.70
2017-06-26T11:33:02.679Z,2.93
2017-06-26T11:35:30.172Z,2.67
2017-06-26T11:37:57.671Z,2.23
2017-06-26T11:40:25.167Z,2.60
2017-06-26T11:42:52.652Z,2.47
2017-06-26T11:45:20.164Z,2.33
2017-06-26T11:47:47.672Z,1.90
2017-06-26T11:50:15.193Z,1.40
2017-06-26T11:52:42.741Z,1.27
2017-06-26T11:55:10.321Z,0.80
2017-06-26T11:57:37.833Z,0.97
2017-06-26T12:00:06.123Z,0.80
2017-06-26T12:02:33.655Z,1.00
2017-06-26T12:05:01.944Z,0.87
2017-06-26T12:07:30.223Z,0.80
2017-06-26T12:09:58.524Z,0.90
2017-06-26T12:12:26.088Z,0.93
2017-06-26T12:14:53.627Z,0.83
2017-06-26T12:17:21.154Z,0.80
2017-06-26T12:19:48.705Z,0.80
2017-06-26T12:22:16.223Z,0.70
2017-06-26T12:24:43.714Z,0.83
2017-06-26T12:27:11.285Z,0.77
2017-06-26T12:29:38.786Z,0.97
2017-06-26T12:32:06.307Z,1.00
2017-06-26T12:34:33.878Z,0.70
2017-06-26T12:37:01.374Z,0.97
2017-06-26T12:39:28.917Z,0.80
2017-06-26T12:41:56.435Z,1.00
2017-06-26T12:44:23.943Z,0.80
2017-06-26T12:46:51.470Z,0.60
2017-06-26T12:49:19.060Z,0.70
2017-06-26T12:51:46.618Z,0.80
2017-06-26T12:54:14.156Z,0.90
2017-06-26T12:56:42.429Z,0.63
2017-06-26T12:59:09.952Z,1.43
2017-06-26T13:01:37.593Z,0.80
2017-06-26T13:04:05.111Z,0.90
2017-06-26T13:06:33.378Z,0.83
2017-06-26T13:09:00.930Z,0.90
2017-06-26T13:11:28.554Z,0.70
2017-06-26T13:13:56.193Z,0.70
2017-06-26T13:16:23.730Z,1.10
2017-06-26T13:18:51.282Z,0.93
2017-06-26T13:21:19.032Z,0.60
2017-06-26T13:23:46.531Z,1.00
2017-06-26T13:26:14.815Z,0.90
2017-06-26T13:28:42.313Z,0.80
2017-06-26T13:31:09.800Z,1.30
2017-06-26T13:33:37.320Z,1.00
2017-06-26T13:36:04.831Z,0.70
2017-06-26T13:38:33.111Z,1.00
2017-06-26T13:41:01.407Z,0.90
2017-06-26T13:43:29.678Z,1.13
2017-06-26T13:45:57.209Z,1.00
2017-06-26T13:48:24.729Z,1.13
2017-06-26T13:50:52.249Z,0.90
2017-06-26T13:53:20.510Z,1.00
2017-06-26T13:55:48.763Z,0.80
2017-06-26T13:58:16.309Z,1.00
2017-06-26T14:03:17.688Z,1.00
2017-06-26T14:05:45.267Z,1.00
2017-06-26T14:08:12.768Z,1.10
2017-06-26T14:10:40.295Z,1.00
2017-06-26T14:13:08.599Z,0.87
2017-06-26T14:15:36.109Z,1.03
2017-06-26T14:18:03.627Z,0.80
2017-06-26T14:20:31.179Z,1.00
2017-06-26T14:22:58.686Z,1.00
2017-06-26T14:25:26.201Z,1.07
2017-06-26T14:27:53.728Z,1.23
2017-06-26T14:30:21.995Z,1.40
2017-06-26T14:32:49.606Z,1.00
2017-06-26T14:35:17.163Z,1.70
2017-06-26T14:37:44.663Z,0.97
2017-06-26T14:40:12.197Z,1.27
2017-06-26T14:42:39.738Z,1.10
2017-06-26T14:45:07.266Z,1.10
2017-06-26T14:47:34.869Z,1.20
2017-06-26T14:50:02.405Z,1.47
2017-06-26T14:52:29.915Z,1.13
2017-06-26T14:54:57.437Z,1.17
2017-06-26T14:57:25.102Z,1.00
2017-06-26T14:59:52.615Z,1.37
2017-06-26T15:02:21.434Z,1.30
2017-06-26T15:04:49.006Z,1.07
2017-06-26T15:07:16.555Z,1.17
2017-06-26T15:09:44.102Z,1.53
2017-06-26T15:12:12.355Z,1.00
2017-06-26T15:14:39.861Z,1.30
2017-06-26T15:17:07.374Z,1.20
2017-06-26T15:19:34.881Z,1.40
2017-06-26T15:22:02.396Z,1.30
2017-06-26T15:24:29.925Z,1.23
2017-06-26T15:26:57.432Z,1.00
2017-06-26T15:29:25.724Z,0.93
2017-06-26T15:31:53.228Z,0.90
2017-06-26T15:34:20.742Z,1.33
2017-06-26T15:36:48.276Z,1.30
2017-06-26T15:39:16.541Z,1.20
2017-06-26T15:41:44.077Z,1.10
2017-06-26T15:44:11.628Z,1.00
2017-06-26T15:46:39.122Z,1.00
2017-06-26T15:49:07.381Z,1.20
2017-06-26T15:51:34.907Z,1.20
2017-06-26T15:54:02.412Z,1.30
2017-06-26T15:56:29.978Z,1.50
2017-06-26T15:58:58.313Z,1.43
2017-06-26T16:01:25.822Z,1.10
2017-06-26T16:03:54.100Z,1.33
2017-06-26T16:06:22.451Z,1.70
2017-06-26T16:08:49.963Z,1.50
2017-06-26T16:11:17.460Z,1.53
2017-06-26T16:13:45.023Z,1.87
2017-06-26T16:16:12.574Z,1.33
2017-06-26T16:18:40.097Z,1.30
2017-06-26T16:21:07.647Z,1.20
2017-06-26T16:23:35.984Z,1.27
2017-06-26T16:26:03.507Z,1.43
2017-06-26T16:28:31.081Z,1.10
2017-06-26T16:30:58.592Z,1.23
2017-06-26T16:33:26.860Z,1.50
2017-06-26T16:35:55.183Z,1.37
2017-06-26T16:38:22.703Z,1.20
2017-06-26T16:40:50.213Z,1.40
2017-06-26T16:43:17.761Z,1.30
2017-06-26T16:45:45.276Z,1.50
2017-06-26T16:48:13.546Z,1.30
2017-06-26T16:50:41.834Z,1.23
2017-06-26T16:53:10.444Z,1.77
2017-06-26T16:55:37.954Z,1.53
2017-06-26T16:58:05.675Z,1.50
2017-06-26T17:00:33.308Z,1.30
2017-06-26T17:03:00.901Z,1.43
2017-06-26T17:05:28.450Z,1.53
2017-06-26T17:07:55.948Z,1.70
2017-06-26T17:10:23.480Z,1.47
2017-06-26T17:12:50.978Z,1.40
2017-06-26T17:15:18.487Z,1.63
2017-06-26T17:17:45.987Z,3.67
2017-06-26T17:20:13.519Z,1.87
2017-06-26T17:22:41.035Z,1.60
2017-06-26T17:25:09.308Z,1.77
2017-06-26T17:27:37.606Z,1.50
2017-06-26T17:30:05.099Z,1.50
2017-06-26T17:32:32.622Z,2.13
2017-06-26T17:35:00.921Z,1.77
2017-06-26T17:37:28.449Z,2.30
2017-06-26T17:39:55.962Z,1.93
2017-06-26T17:42:23.472Z,2.27
2017-06-26T17:44:50.986Z,2.20
2017-06-26T17:47:18.472Z,2.20
2017-06-26T17:49:46.754Z,2.20
2017-06-26T17:52:15.034Z,1.87
2017-06-26T17:54:43.749Z,2.30
2017-06-26T17:57:11.311Z,2.20
2017-06-26T17:59:38.851Z,1.90
2017-06-26T18:02:07.113Z,1.80
2017-06-26T18:04:35.407Z,1.93
2017-06-26T18:07:03.693Z,1.87
2017-06-26T18:09:31.202Z,2.00
2017-06-26T18:11:58.728Z,2.00
2017-06-26T18:14:26.265Z,2.40
2017-06-26T18:16:54.516Z,2.53
2017-06-26T18:19:22.790Z,2.70
2017-06-26T18:21:50.308Z,2.10
2017-06-26T18:24:17.865Z,1.87
2017-06-26T18:26:45.616Z,2.87
2017-06-26T18:29:13.130Z,2.37
2017-06-26T18:31:40.670Z,2.00
2017-06-26T18:34:08.183Z,2.37
2017-06-26T18:36:36.013Z,2.87
2017-06-26T18:39:04.768Z,3.37
2017-06-26T18:41:32.266Z,4.53
2017-06-26T18:44:00.552Z,2.80
2017-06-26T18:46:28.866Z,3.20
2017-06-26T18:48:58.631Z,2.13
2017-06-26T18:51:26.956Z,4.60
2017-06-26T18:53:54.488Z,3.33
2017-06-26T18:56:22.765Z,2.33
2017-06-26T18:58:50.371Z,2.80
2017-06-26T19:01:17.878Z,2.77
2017-06-26T19:03:46.202Z,4.10
2017-06-26T19:06:13.835Z,2.93
2017-06-26T19:08:41.337Z,2.70
2017-06-26T19:11:08.847Z,2.30
2017-06-26T19:13:37.228Z,2.83
2017-06-26T19:16:04.782Z,2.77
2017-06-26T19:18:32.336Z,3.40
2017-06-26T19:21:00.771Z,3.30
2017-06-26T19:23:28.268Z,2.73
2017-06-26T19:25:55.787Z,3.23
2017-06-26T19:28:23.327Z,3.10
2017-06-26T19:30:50.889Z,2.93
2017-06-26T19:33:18.386Z,4.10
2017-06-26T19:35:45.926Z,3.43
2017-06-26T19:38:13.457Z,3.93
2017-06-26T19:40:41.332Z,3.93
2017-06-26T19:43:08.872Z,4.47
2017-06-26T19:45:36.385Z,4.13
2017-06-26T19:48:04.877Z,3.60
2017-06-26T19:50:32.502Z,3.70
2017-06-26T19:53:00.007Z,4.00
2017-06-26T19:55:27.499Z,3.63
2017-06-26T19:57:55.048Z,4.13
2017-06-26T20:00:23.287Z,3.50
2017-06-26T20:02:50.806Z,4.30
2017-06-26T20:05:18.325Z,3.40
2017-06-26T20:07:45.819Z,3.83
2017-06-26T20:10:13.338Z,5.17
2017-06-26T20:12:41.637Z,4.97
2017-06-26T20:15:09.131Z,4.47
2017-06-26T20:17:36.662Z,4.50
2017-06-26T20:20:04.200Z,4.70
2017-06-26T20:22:31.756Z,4.77
2017-06-26T20:24:59.284Z,4.53
2017-06-26T20:27:26.863Z,5.80
2017-06-26T20:29:54.351Z,5.90
2017-06-26T20:32:21.832Z,6.50
2017-06-26T20:34:49.415Z,5.77
2017-06-26T20:37:16.931Z,6.10
2017-06-26T20:39:44.422Z,5.83
2017-06-26T20:42:12.544Z,6.30
2017-06-26T20:44:40.055Z,6.73
2017-06-26T20:47:07.563Z,6.00
2017-06-26T20:49:35.095Z,6.50
2017-06-26T20:52:02.601Z,7.57
2017-06-26T20:54:30.139Z,8.03
2017-06-26T20:56:58.415Z,7.03
2017-06-26T20:59:26.699Z,7.00
2017-06-26T21:01:55.095Z,6.50
2017-06-26T21:04:22.597Z,6.93
2017-06-26T21:06:50.162Z,7.53
2017-06-26T21:09:17.690Z,7.40
2017-06-26T21:11:45.180Z,6.93
2017-06-26T21:14:12.667Z,7.20
2017-06-26T21:16:40.205Z,6.73
2017-06-26T21:19:07.700Z,6.63
2017-06-26T21:21:35.973Z,6.47
2017-06-26T21:24:03.599Z,7.27
2017-06-26T21:26:31.092Z,7.03
2017-06-26T21:28:58.603Z,7.97
2017-06-26T21:31:26.117Z,7.80
2017-06-26T21:33:53.615Z,6.70
2017-06-26T21:36:21.121Z,8.40
2017-06-26T21:38:48.666Z,6.87
2017-06-26T21:41:16.153Z,7.03
2017-06-26T21:43:43.671Z,7.03
2017-06-26T21:46:11.213Z,7.80
2017-06-26T21:48:38.704Z,7.27
2017-06-26T21:51:06.186Z,7.30
2017-06-26T21:53:33.770Z,8.00
2017-06-26T21:56:01.276Z,8.50
2017-06-26T21:58:28.772Z,7.20
2017-06-26T22:00:56.291Z,8.17
2017-06-26T22:03:23.822Z,7.57
2017-06-26T22:05:51.336Z,7.00
2017-06-26T22:08:19.626Z,6.83
2017-06-26T22:10:47.150Z,8.07
2017-06-26T22:13:14.621Z,8.47
2017-06-26T22:15:42.159Z,8.20
2017-06-26T22:18:09.663Z,9.10
2017-06-26T22:20:37.153Z,8.10
2017-06-26T22:23:04.707Z,8.40
2017-06-26T22:25:32.287Z,10.20
2017-06-26T22:27:59.822Z,9.23
2017-06-26T22:30:27.486Z,9.80
2017-06-26T22:32:54.974Z,8.97
2017-06-26T22:35:22.466Z,10.20
2017-06-26T22:37:50.264Z,8.87
2017-06-26T22:40:18.679Z,8.97
2017-06-26T22:42:46.163Z,9.23
2017-06-26T22:45:13.698Z,9.20
2017-06-26T22:47:41.200Z,10.50
2017-06-26T22:50:08.694Z,9.97
2017-06-26T22:52:36.201Z,10.37
2017-06-26T22:55:03.716Z,10.40
2017-06-26T22:57:31.235Z,10.63
2017-06-26T22:59:58.825Z,10.40
2017-06-26T23:02:26.333Z,11.60
2017-06-26T23:04:53.919Z,13.43
2017-06-26T23:07:21.439Z,11.93
2017-06-26T23:09:48.940Z,13.60
2017-06-26T23:12:16.500Z,11.37
2017-06-26T23:14:44.040Z,12.00
2017-06-26T23:17:11.538Z,11.13
2017-06-26T23:19:39.622Z,10.03
2017-06-26T23:22:07.149Z,11.33
2017-06-26T23:24:34.638Z,9.43
2017-06-26T23:27:02.150Z,9.57
2017-06-26T23:29:30.430Z,10.20
2017-06-26T23:31:57.934Z,10.50
2017-06-26T23:34:25.440Z,13.33
2017-06-26T23:36:53.048Z,11.60
2017-06-26T23:39:20.706Z,13.77
2017-06-26T23:41:48.212Z,16.00
2017-06-26T23:44:15.793Z,14.07
2017-06-26T23:46:43.293Z,13.50
2017-06-26T23:49:10.802Z,15.50
2017-06-26T23:51:38.349Z,15.23
2017-06-26T23:54:05.828Z,17.90
2017-06-26T23:56:33.466Z,16.60
2017-06-26T23:59:00.985Z,17.73
